Time;durP1;ratioP1;P1;durP2;ratioP2;P2;SDS_P1;SDS_P2;PMS_P1;PMS_P2;Temp;Humidity;BMP_temperature;BMP_pressure;BME280_temperature;BME280_humidity;BME280_pressure;Samples;Min_cycle;Max_cycle;Signal;HPM_P1;HPM_P2
2023/12/21 00:01:35;;;;;;;3.63;3.43;;;;;;;;;;4941489;28;20246;-85
2023/12/21 00:04:03;;;;;;;3.63;3.40;;;;;;;;;;4921916;28;20226;-86
2023/12/21 00:06:29;;;;;;;3.30;3.10;;;;;;;;;;4954960;28;20230;-87
2023/12/21 00:08:55;;;;;;;3.23;3.03;;;;;;;;;;4953851;28;20274;-89
2023/12/21 00:11:26;;;;;;;3.40;3.10;;;;;;;;;;4945116;28;20239;-86
2023/12/21 00:13:52;;;;;;;4.50;2.63;;;;;;;;;;4941695;28;20219;-84
2023/12/21 00:16:17;;;;;;;2.33;2.23;;;;;;;;;;4928329;28;20225;-86
2023/12/21 00:18:43;;;;;;;2.37;2.27;;;;;;;;;;4943394;28;20230;-87
2023/12/21 00:21:11;;;;;;;2.00;1.90;;;;;;;;;;4926411;28;20229;-84
2023/12/21 00:23:37;;;;;;;2.10;1.80;;;;;;;;;;4952182;29;20234;-88
2023/12/21 00:26:03;;;;;;;1.93;1.83;;;;;;;;;;4949559;28;20222;-86
2023/12/21 00:28:33;;;;;;;2.10;2.00;;;;;;;;;;4936077;29;20223;-84
2023/12/21 00:31:01;;;;;;;1.73;1.63;;;;;;;;;;4966820;28;20222;-86
2023/12/21 00:33:26;;;;;;;1.70;1.60;;;;;;;;;;4947288;28;20265;-85
2023/12/21 00:35:53;;;;;;;1.70;1.60;;;;;;;;;;4938890;28;20276;-84
2023/12/21 00:38:20;;;;;;;1.53;1.47;;;;;;;;;;4960560;28;20204;-85
2023/12/21 00:40:46;;;;;;;1.57;1.57;;;;;;;;;;4949208;28;20293;-85
2023/12/21 00:43:14;;;;;;;1.80;1.70;;;;;;;;;;4960935;28;20203;-85
2023/12/21 00:45:40;;;;;;;1.73;1.63;;;;;;;;;;4960060;28;20253;-84
2023/12/21 00:48:08;;;;;;;2.17;1.70;;;;;;;;;;4945114;29;20211;-87
2023/12/21 00:50:33;;;;;;;1.80;1.70;;;;;;;;;;4948452;28;20246;-85
2023/12/21 00:52:59;;;;;;;1.70;1.60;;;;;;;;;;4957001;28;20314;-87
2023/12/21 00:55:24;;;;;;;1.27;1.27;;;;;;;;;;4943172;28;20310;-83
2023/12/21 00:57:50;;;;;;;1.33;1.30;;;;;;;;;;4933109;28;20256;-84
2023/12/21 01:00:20;;;;;;;1.17;1.13;;;;;;;;;;4944451;29;20219;-86
2023/12/21 01:02:46;;;;;;;1.30;1.20;;;;;;;;;;4949934;29;20326;-87
2023/12/21 01:05:14;;;;;;;1.57;1.47;;;;;;;;;;4934961;28;20230;-84
2023/12/21 01:07:40;;;;;;;1.10;1.10;;;;;;;;;;4960509;28;20585;-86
2023/12/21 01:10:06;;;;;;;1.60;1.50;;;;;;;;;;4928979;28;20237;-86
2023/12/21 01:12:34;;;;;;;1.50;1.40;;;;;;;;;;4944700;28;20270;-88
2023/12/21 01:15:03;;;;;;;1.80;1.70;;;;;;;;;;4965599;28;20234;-88
2023/12/21 01:17:28;;;;;;;2.73;1.90;;;;;;;;;;4952384;28;20222;-85
2023/12/21 01:19:56;;;;;;;2.00;1.90;;;;;;;;;;4948064;28;20252;-88
2023/12/21 01:22:22;;;;;;;2.40;2.20;;;;;;;;;;4933711;28;20216;-84
2023/12/21 01:24:48;;;;;;;2.40;2.30;;;;;;;;;;4963517;28;20274;-87
2023/12/21 01:27:13;;;;;;;1.70;1.60;;;;;;;;;;4926925;28;20210;-83
2023/12/21 01:29:39;;;;;;;2.00;1.90;;;;;;;;;;4933722;28;20227;-86
2023/12/21 01:32:05;;;;;;;1.70;1.60;;;;;;;;;;4948993;28;20218;-84
2023/12/21 01:34:30;;;;;;;1.87;1.70;;;;;;;;;;4937386;28;20226;-87
2023/12/21 01:36:58;;;;;;;2.07;1.80;;;;;;;;;;4953121;28;20298;-84
2023/12/21 01:39:26;;;;;;;1.73;1.63;;;;;;;;;;4967717;28;20238;-85
2023/12/21 01:41:52;;;;;;;1.73;1.63;;;;;;;;;;4979422;28;20242;-85
2023/12/21 01:44:20;;;;;;;2.00;1.70;;;;;;;;;;4946768;28;20266;-86
2023/12/21 01:46:45;;;;;;;1.97;1.87;;;;;;;;;;4948385;28;20270;-85
2023/12/21 01:49:11;;;;;;;1.60;1.50;;;;;;;;;;4947315;28;20207;-86
2023/12/21 01:51:39;;;;;;;1.70;1.60;;;;;;;;;;4960124;28;20267;-85
2023/12/21 01:54:04;;;;;;;1.87;1.77;;;;;;;;;;4962363;28;20219;-86
2023/12/21 01:56:31;;;;;;;1.43;1.33;;;;;;;;;;4933919;28;20239;-86
2023/12/21 01:58:59;;;;;;;1.77;1.30;;;;;;;;;;4948949;28;20215;-85
2023/12/21 02:01:25;;;;;;;1.93;1.70;;;;;;;;;;4933188;29;20246;-85
2023/12/21 02:03:53;;;;;;;1.53;1.43;;;;;;;;;;4946847;28;20225;-88
2023/12/21 02:06:19;;;;;;;1.60;1.50;;;;;;;;;;4916290;28;20553;-85
2023/12/21 02:08:45;;;;;;;1.07;1.07;;;;;;;;;;4918370;29;20226;-87
2023/12/21 02:11:10;;;;;;;1.30;1.20;;;;;;;;;;4947672;28;20230;-88
2023/12/21 02:13:36;;;;;;;1.00;1.00;;;;;;;;;;4924506;28;20314;-87
2023/12/21 02:16:06;;;;;;;1.30;1.20;;;;;;;;;;4945507;28;20235;-84
2023/12/21 02:18:38;;;;;;;1.00;1.00;;;;;;;;;;4960003;28;20226;-88
2023/12/21 02:21:06;;;;;;;0.80;0.80;;;;;;;;;;4944863;29;20305;-84
2023/12/21 02:23:33;;;;;;;0.80;0.80;;;;;;;;;;4931087;28;20227;-89
2023/12/21 02:25:58;;;;;;;1.23;1.13;;;;;;;;;;4962549;28;20222;-89
2023/12/21 02:28:27;;;;;;;1.20;1.13;;;;;;;;;;4925523;28;20216;-86
2023/12/21 02:30:55;;;;;;;1.80;1.10;;;;;;;;;;4952577;28;20225;-88
2023/12/21 02:33:20;;;;;;;1.10;1.10;;;;;;;;;;4927299;28;20226;-89
2023/12/21 02:35:46;;;;;;;2.17;1.70;;;;;;;;;;4968208;28;20834;-88
2023/12/21 02:38:14;;;;;;;2.83;1.97;;;;;;;;;;4948995;28;20230;-85
2023/12/21 02:40:40;;;;;;;2.40;2.20;;;;;;;;;;4951855;28;20218;-85
2023/12/21 02:43:05;;;;;;;2.73;2.47;;;;;;;;;;4932589;28;20698;-87
2023/12/21 02:45:31;;;;;;;2.93;2.63;;;;;;;;;;4952214;28;20299;-85
2023/12/21 02:47:56;;;;;;;4.97;3.10;;;;;;;;;;4942676;28;20265;-91
2023/12/21 02:50:22;;;;;;;5.17;2.77;;;;;;;;;;4945130;28;20226;-87
2023/12/21 02:52:48;;;;;;;3.70;2.90;;;;;;;;;;4944890;28;20254;-88
2023/12/21 02:55:13;;;;;;;3.40;2.60;;;;;;;;;;4956496;28;20230;-88
2023/12/21 02:57:43;;;;;;;3.57;2.60;;;;;;;;;;4960858;28;20233;-86
2023/12/21 03:00:14;;;;;;;3.07;2.73;;;;;;;;;;4949780;28;20221;-86
2023/12/21 03:02:40;;;;;;;2.83;2.63;;;;;;;;;;4934638;28;20227;-87
2023/12/21 03:05:07;;;;;;;2.83;2.60;;;;;;;;;;4947638;28;20286;-89
2023/12/21 03:07:33;;;;;;;3.10;2.80;;;;;;;;;;4968604;28;20217;-85
2023/12/21 03:09:58;;;;;;;3.43;2.70;;;;;;;;;;4950081;28;20249;-86
2023/12/21 03:12:30;;;;;;;4.80;3.00;;;;;;;;;;4948883;28;20229;-85
2023/12/21 03:15:01;;;;;;;5.17;2.83;;;;;;;;;;4963997;28;20213;-86
2023/12/21 03:17:29;;;;;;;4.33;3.93;;;;;;;;;;4964715;29;20222;-85
2023/12/21 03:19:54;;;;;;;4.77;4.37;;;;;;;;;;4958476;28;20217;-85
2023/12/21 03:22:22;;;;;;;6.00;4.57;;;;;;;;;;4962817;29;21771;-87
2023/12/21 03:24:48;;;;;;;6.20;5.60;;;;;;;;;;4957646;28;20233;-87
2023/12/21 03:27:14;;;;;;;4.83;4.43;;;;;;;;;;4946322;28;20310;-84
2023/12/21 03:29:44;;;;;;;11.33;5.47;;;;;;;;;;4948114;28;20263;-86
2023/12/21 03:32:12;;;;;;;5.30;4.90;;;;;;;;;;4940409;28;20258;-85
2023/12/21 03:34:37;;;;;;;6.00;5.40;;;;;;;;;;4945858;28;20218;-91
2023/12/21 03:37:03;;;;;;;8.30;6.07;;;;;;;;;;4946348;28;20731;-87
2023/12/21 03:39:38;;;;;;;7.30;5.50;;;;;;;;;;4966207;28;20250;-84
2023/12/21 03:42:06;;;;;;;6.17;5.37;;;;;;;;;;4949883;28;20230;-87
2023/12/21 03:44:32;;;;;;;5.27;4.60;;;;;;;;;;4962045;28;20231;-86
2023/12/21 03:47:00;;;;;;;5.37;4.93;;;;;;;;;;4944731;28;20235;-85
2023/12/21 03:49:28;;;;;;;5.30;4.80;;;;;;;;;;4945800;28;20214;-86
2023/12/21 03:51:57;;;;;;;5.03;4.53;;;;;;;;;;4958389;28;20286;-85
2023/12/21 03:54:23;;;;;;;4.87;4.40;;;;;;;;;;4961705;28;20302;-84
2023/12/21 03:56:48;;;;;;;6.23;4.97;;;;;;;;;;4933347;28;20341;-86
2023/12/21 04:03:02;;;;;;;5.20;4.70;;;;;;;;;;4976419;28;20226;-81
2023/12/21 04:05:27;;;;;;;4.80;4.33;;;;;;;;;;4926302;28;20242;-84
2023/12/21 04:07:53;;;;;;;6.03;5.00;;;;;;;;;;4938265;28;20303;-83
2023/12/21 04:10:18;;;;;;;5.30;4.70;;;;;;;;;;4917154;28;20278;-86
2023/12/21 04:12:44;;;;;;;5.10;4.70;;;;;;;;;;4949127;28;20319;-88
2023/12/21 04:15:16;;;;;;;4.77;4.27;;;;;;;;;;4935264;28;20226;-87
2023/12/21 04:17:46;;;;;;;7.00;4.70;;;;;;;;;;4932647;29;20241;-84
2023/12/21 04:20:11;;;;;;;7.40;5.30;;;;;;;;;;4955250;28;20286;-83
2023/12/21 04:22:39;;;;;;;6.43;5.27;;;;;;;;;;4935260;28;20256;-84
2023/12/21 04:25:05;;;;;;;7.90;5.57;;;;;;;;;;4936803;28;20290;-85
2023/12/21 04:27:35;;;;;;;6.40;5.67;;;;;;;;;;4938497;28;20198;-86
2023/12/21 04:30:01;;;;;;;6.63;5.97;;;;;;;;;;4949883;28;20238;-85
2023/12/21 04:32:29;;;;;;;6.47;5.10;;;;;;;;;;4951084;28;20207;-86
2023/12/21 04:34:55;;;;;;;8.40;6.20;;;;;;;;;;4912766;28;20269;-84
2023/12/21 04:37:26;;;;;;;8.57;5.73;;;;;;;;;;4945449;28;20247;-83
2023/12/21 04:39:54;;;;;;;6.30;5.70;;;;;;;;;;4946151;28;20254;-85
2023/12/21 04:42:19;;;;;;;5.80;5.20;;;;;;;;;;4930338;28;20217;-84
2023/12/21 04:44:47;;;;;;;7.20;5.97;;;;;;;;;;4953654;28;20218;-85
2023/12/21 04:47:15;;;;;;;7.80;6.00;;;;;;;;;;4948459;28;20219;-85
2023/12/21 04:49:42;;;;;;;6.77;5.40;;;;;;;;;;4948088;28;20230;-86
2023/12/21 04:52:13;;;;;;;6.80;5.20;;;;;;;;;;4963379;28;20234;-86
2023/12/21 04:54:40;;;;;;;6.17;5.17;;;;;;;;;;4950673;28;20224;-82
2023/12/21 04:57:06;;;;;;;5.57;4.87;;;;;;;;;;4926091;28;20206;-86
2023/12/21 04:59:32;;;;;;;5.33;4.27;;;;;;;;;;4949838;28;20214;-84
2023/12/21 05:01:59;;;;;;;7.10;4.00;;;;;;;;;;4947453;28;20271;-81
2023/12/21 05:04:25;;;;;;;4.10;3.63;;;;;;;;;;4945951;28;20213;-85
2023/12/21 05:06:53;;;;;;;8.20;3.40;;;;;;;;;;4944171;28;20202;-85
2023/12/21 05:09:19;;;;;;;4.03;3.10;;;;;;;;;;4931458;28;20218;-84
2023/12/21 05:11:44;;;;;;;5.43;3.23;;;;;;;;;;4951152;28;20282;-85
2023/12/21 05:14:12;;;;;;;3.70;2.90;;;;;;;;;;4960614;28;20230;-86
2023/12/21 05:16:39;;;;;;;3.17;2.83;;;;;;;;;;4959787;28;20233;-86
2023/12/21 05:19:06;;;;;;;3.30;3.00;;;;;;;;;;4955892;28;20223;-89
2023/12/21 05:21:34;;;;;;;3.47;3.17;;;;;;;;;;4938583;28;20234;-85
2023/12/21 05:24:00;;;;;;;5.37;4.07;;;;;;;;;;4963424;28;20221;-80
2023/12/21 05:26:25;;;;;;;5.90;4.50;;;;;;;;;;4949541;28;20306;-82
2023/12/21 05:28:56;;;;;;;5.57;4.57;;;;;;;;;;4962004;28;20211;-87
2023/12/21 05:31:24;;;;;;;4.90;4.50;;;;;;;;;;4945056;28;20211;-86
2023/12/21 05:33:50;;;;;;;5.60;5.10;;;;;;;;;;4933758;28;20220;-87
2023/12/21 05:36:22;;;;;;;5.97;5.37;;;;;;;;;;4949292;28;20202;-86
2023/12/21 05:38:53;;;;;;;6.43;5.10;;;;;;;;;;4923304;29;20229;-88
2023/12/21 05:41:19;;;;;;;6.30;5.70;;;;;;;;;;4923581;28;20242;-85
2023/12/21 05:43:47;;;;;;;5.60;5.10;;;;;;;;;;4943001;28;20222;-88
2023/12/21 05:46:13;;;;;;;6.60;5.37;;;;;;;;;;4945252;28;20307;-89
2023/12/21 05:48:38;;;;;;;5.03;4.53;;;;;;;;;;4934033;29;20231;-84
2023/12/21 05:51:04;;;;;;;4.33;4.03;;;;;;;;;;4957388;28;20681;-85
2023/12/21 05:53:30;;;;;;;4.37;4.07;;;;;;;;;;4941807;28;20234;-84
2023/12/21 05:55:58;;;;;;;4.93;4.13;;;;;;;;;;4945513;29;20202;-85
2023/12/21 05:58:23;;;;;;;4.00;3.70;;;;;;;;;;4930990;28;20230;-87
2023/12/21 06:00:49;;;;;;;4.80;4.40;;;;;;;;;;4936892;28;20226;-84
2023/12/21 06:03:20;;;;;;;5.50;5.03;;;;;;;;;;4936851;28;20200;-85
2023/12/21 06:05:50;;;;;;;3.50;3.23;;;;;;;;;;4954617;28;20286;-85
2023/12/21 06:08:18;;;;;;;3.10;2.90;;;;;;;;;;4926217;28;20207;-87
2023/12/21 06:10:44;;;;;;;3.20;3.00;;;;;;;;;;4959737;28;20229;-84
2023/12/21 06:13:09;;;;;;;3.07;2.80;;;;;;;;;;4957944;29;20230;-86
2023/12/21 06:15:35;;;;;;;2.80;2.60;;;;;;;;;;4932526;28;20238;-86
2023/12/21 06:18:00;;;;;;;2.27;2.17;;;;;;;;;;4947507;28;20214;-85
2023/12/21 06:20:30;;;;;;;2.10;2.00;;;;;;;;;;4964559;28;20223;-83
2023/12/21 06:22:59;;;;;;;1.60;1.50;;;;;;;;;;4942534;28;20223;-82
2023/12/21 06:25:29;;;;;;;1.40;1.40;;;;;;;;;;4941943;28;20246;-85
2023/12/21 06:27:57;;;;;;;1.47;1.37;;;;;;;;;;4943711;28;20215;-85
2023/12/21 06:30:27;;;;;;;1.60;1.50;;;;;;;;;;4959914;28;20258;-84
2023/12/21 06:32:53;;;;;;;1.10;1.10;;;;;;;;;;4945001;28;20225;-87
2023/12/21 06:35:21;;;;;;;1.20;1.20;;;;;;;;;;4941798;28;20322;-83
2023/12/21 06:37:49;;;;;;;0.90;0.90;;;;;;;;;;4940775;28;20218;-84
2023/12/21 06:40:16;;;;;;;1.10;1.03;;;;;;;;;;4944925;28;20225;-85
2023/12/21 06:42:42;;;;;;;0.70;0.70;;;;;;;;;;4940409;28;20215;-78
2023/12/21 06:45:08;;;;;;;1.77;1.10;;;;;;;;;;4938223;28;20218;-79
2023/12/21 06:47:38;;;;;;;1.20;1.00;;;;;;;;;;4945806;28;20853;-79
2023/12/21 06:50:05;;;;;;;1.40;1.30;;;;;;;;;;4962380;28;20227;-79
2023/12/21 06:52:30;;;;;;;1.90;0.77;;;;;;;;;;4930491;28;20239;-78
2023/12/21 06:54:58;;;;;;;0.73;0.73;;;;;;;;;;4945132;28;20223;-77
2023/12/21 06:57:24;;;;;;;0.63;0.63;;;;;;;;;;4930699;28;20277;-78
2023/12/21 06:59:50;;;;;;;0.63;0.63;;;;;;;;;;4952804;28;20222;-78
2023/12/21 07:02:17;;;;;;;1.20;1.00;;;;;;;;;;4945798;28;20219;-79
2023/12/21 07:04:43;;;;;;;0.70;0.70;;;;;;;;;;4954577;28;20230;-80
2023/12/21 07:07:08;;;;;;;0.70;0.70;;;;;;;;;;4925667;28;20298;-78
2023/12/21 07:09:34;;;;;;;0.70;0.70;;;;;;;;;;4915631;28;20241;-78
2023/12/21 07:12:00;;;;;;;0.70;0.67;;;;;;;;;;4967831;28;20234;-78
2023/12/21 07:14:26;;;;;;;0.80;0.80;;;;;;;;;;4953815;28;20258;-78
2023/12/21 07:16:51;;;;;;;0.73;0.73;;;;;;;;;;4930978;28;20270;-77
2023/12/21 07:19:19;;;;;;;0.70;0.70;;;;;;;;;;4964071;28;20211;-79
2023/12/21 07:21:47;;;;;;;0.80;0.80;;;;;;;;;;4936050;28;20258;-79
2023/12/21 07:24:13;;;;;;;0.90;0.90;;;;;;;;;;4959720;28;20222;-79
2023/12/21 07:26:40;;;;;;;1.63;1.03;;;;;;;;;;4955391;28;20258;-78
2023/12/21 07:29:09;;;;;;;1.10;1.00;;;;;;;;;;4933564;28;20230;-79
2023/12/21 07:31:35;;;;;;;0.80;0.80;;;;;;;;;;4955832;28;20296;-78
2023/12/21 07:34:00;;;;;;;1.00;1.00;;;;;;;;;;4948318;28;20222;-80
2023/12/21 07:36:27;;;;;;;1.00;1.00;;;;;;;;;;4966088;28;20222;-85
2023/12/21 07:38:55;;;;;;;0.97;0.97;;;;;;;;;;4939773;29;20228;-84
2023/12/21 07:41:23;;;;;;;0.83;0.83;;;;;;;;;;4943236;28;20238;-86
2023/12/21 07:43:49;;;;;;;1.00;1.00;;;;;;;;;;4965492;28;20238;-83
2023/12/21 07:46:14;;;;;;;0.80;0.80;;;;;;;;;;4944027;28;20226;-83
2023/12/21 07:48:40;;;;;;;0.50;0.50;;;;;;;;;;4935585;28;20299;-86
2023/12/21 07:51:08;;;;;;;0.63;0.63;;;;;;;;;;4932342;29;20230;-82
2023/12/21 07:53:34;;;;;;;0.80;0.80;;;;;;;;;;4965627;28;20228;-84
2023/12/21 07:55:59;;;;;;;0.80;0.80;;;;;;;;;;4943340;29;20230;-85
2023/12/21 07:58:28;;;;;;;0.57;0.57;;;;;;;;;;4966622;28;20317;-82
2023/12/21 08:00:53;;;;;;;0.70;0.70;;;;;;;;;;4974766;28;20270;-84
2023/12/21 08:03:22;;;;;;;0.70;0.70;;;;;;;;;;4946431;29;20218;-83
2023/12/21 08:05:47;;;;;;;1.13;1.03;;;;;;;;;;4960324;28;20226;-84
2023/12/21 08:08:16;;;;;;;0.70;0.70;;;;;;;;;;4941820;28;20219;-84
2023/12/21 08:10:42;;;;;;;0.70;0.70;;;;;;;;;;4973221;28;20232;-84
2023/12/21 08:13:13;;;;;;;1.90;1.43;;;;;;;;;;4953384;28;20233;-84
2023/12/21 08:15:39;;;;;;;0.87;0.87;;;;;;;;;;4963755;28;20234;-84
2023/12/21 08:18:04;;;;;;;0.97;0.97;;;;;;;;;;4945585;29;20222;-81
2023/12/21 08:20:36;;;;;;;0.70;0.70;;;;;;;;;;4941745;29;20250;-83
2023/12/21 08:23:04;;;;;;;0.57;0.57;;;;;;;;;;4962438;28;20246;-85
2023/12/21 08:25:31;;;;;;;0.77;0.63;;;;;;;;;;4937960;28;20231;-84
2023/12/21 08:27:59;;;;;;;0.63;0.63;;;;;;;;;;4923892;29;20222;-86
2023/12/21 08:30:25;;;;;;;0.70;0.70;;;;;;;;;;4920230;29;20246;-84
2023/12/21 08:32:50;;;;;;;1.80;0.60;;;;;;;;;;4918247;29;20218;-83
2023/12/21 08:35:17;;;;;;;0.47;0.40;;;;;;;;;;4939169;28;20234;-84
2023/12/21 08:37:45;;;;;;;0.50;0.50;;;;;;;;;;4934155;28;20231;-84
2023/12/21 08:40:11;;;;;;;0.60;0.60;;;;;;;;;;4941317;28;20206;-85
2023/12/21 08:42:37;;;;;;;0.50;0.50;;;;;;;;;;4954013;28;20291;-82
2023/12/21 08:45:03;;;;;;;0.73;0.70;;;;;;;;;;4933605;29;20216;-87
2023/12/21 08:47:29;;;;;;;0.50;0.50;;;;;;;;;;4918035;28;20230;-86
2023/12/21 08:50:03;;;;;;;2.30;0.60;;;;;;;;;;4937096;29;20231;-84
2023/12/21 08:52:32;;;;;;;0.30;0.30;;;;;;;;;;4916821;29;20223;-86
2023/12/21 08:54:57;;;;;;;0.43;0.40;;;;;;;;;;4947145;29;20220;-87
2023/12/21 08:57:23;;;;;;;0.40;0.40;;;;;;;;;;4910330;29;26309;-87
2023/12/21 08:59:51;;;;;;;1.70;0.40;;;;;;;;;;4931920;28;20378;-88
2023/12/21 09:02:17;;;;;;;0.37;0.37;;;;;;;;;;4919695;28;20695;-85
2023/12/21 09:04:45;;;;;;;0.40;0.40;;;;;;;;;;4922656;28;20231;-87
2023/12/21 09:07:13;;;;;;;0.40;0.40;;;;;;;;;;4939212;29;20211;-86
2023/12/21 09:09:41;;;;;;;0.40;0.40;;;;;;;;;;4922249;28;20248;-85
2023/12/21 09:12:09;;;;;;;0.93;0.50;;;;;;;;;;4932450;28;20255;-83
2023/12/21 09:14:36;;;;;;;0.80;0.70;;;;;;;;;;4937249;29;20238;-86
2023/12/21 09:17:03;;;;;;;0.63;0.63;;;;;;;;;;4921850;28;20708;-85
2023/12/21 09:19:34;;;;;;;0.53;0.53;;;;;;;;;;4937394;28;20211;-85
2023/12/21 09:22:05;;;;;;;0.73;0.73;;;;;;;;;;4935625;29;20231;-86
2023/12/21 09:24:30;;;;;;;0.80;0.80;;;;;;;;;;4929873;28;20227;-85
2023/12/21 09:26:56;;;;;;;0.70;0.70;;;;;;;;;;4948420;28;20225;-86
2023/12/21 09:29:21;;;;;;;1.10;1.00;;;;;;;;;;4924859;28;20230;-88
2023/12/21 09:31:52;;;;;;;0.70;0.70;;;;;;;;;;4930827;28;20234;-87
2023/12/21 09:34:18;;;;;;;0.87;0.80;;;;;;;;;;4916704;28;20238;-87
2023/12/21 09:36:43;;;;;;;0.83;0.83;;;;;;;;;;4916027;28;20226;-88
2023/12/21 09:39:11;;;;;;;0.50;0.50;;;;;;;;;;4949551;28;20234;-84
2023/12/21 09:41:39;;;;;;;1.10;0.90;;;;;;;;;;4939923;28;20257;-83
2023/12/21 09:44:05;;;;;;;18.10;15.17;;;;;;;;;;4906945;29;20215;-86
2023/12/21 09:46:39;;;;;;;6.60;6.00;;;;;;;;;;4923568;28;20233;-85
2023/12/21 09:49:09;;;;;;;0.80;0.80;;;;;;;;;;4918795;28;20231;-86
2023/12/21 09:51:37;;;;;;;0.90;0.90;;;;;;;;;;4924030;28;20241;-83
2023/12/21 09:54:04;;;;;;;0.97;0.90;;;;;;;;;;4905392;28;20801;-79
2023/12/21 09:56:30;;;;;;;1.00;0.90;;;;;;;;;;4918452;29;20243;-80
2023/12/21 09:58:59;;;;;;;0.73;0.73;;;;;;;;;;4916896;28;20235;-78
2023/12/21 10:01:25;;;;;;;0.80;0.80;;;;;;;;;;4933719;28;20691;-78
2023/12/21 10:03:53;;;;;;;0.67;0.67;;;;;;;;;;4952763;28;20366;-78
2023/12/21 10:06:18;;;;;;;1.87;1.00;;;;;;;;;;4953917;28;20225;-79
2023/12/21 10:08:44;;;;;;;0.80;0.80;;;;;;;;;;4921459;28;20229;-77
2023/12/21 10:11:09;;;;;;;0.60;0.60;;;;;;;;;;4952712;28;20877;-79
2023/12/21 10:13:35;;;;;;;1.80;1.00;;;;;;;;;;4922076;28;20226;-78
2023/12/21 10:16:01;;;;;;;0.70;0.70;;;;;;;;;;4927999;29;20226;-78
2023/12/21 10:18:32;;;;;;;1.27;0.73;;;;;;;;;;4911792;28;20924;-77
2023/12/21 10:21:00;;;;;;;0.70;0.70;;;;;;;;;;4931910;28;20230;-78
2023/12/21 10:23:25;;;;;;;0.50;0.50;;;;;;;;;;4955038;28;20239;-79
2023/12/21 10:25:52;;;;;;;0.87;0.53;;;;;;;;;;4909864;28;20297;-80
2023/12/21 10:28:21;;;;;;;0.60;0.60;;;;;;;;;;4919170;29;20215;-80
2023/12/21 10:30:57;;;;;;;0.57;0.57;;;;;;;;;;4944057;28;20300;-78
2023/12/21 10:33:27;;;;;;;0.50;0.50;;;;;;;;;;4920985;28;20214;-79
2023/12/21 10:35:53;;;;;;;1.43;0.60;;;;;;;;;;4934687;28;20223;-79
2023/12/21 10:38:19;;;;;;;0.57;0.57;;;;;;;;;;4933182;28;20312;-79
2023/12/21 10:40:47;;;;;;;0.57;0.57;;;;;;;;;;4937120;28;20233;-78
2023/12/21 10:43:15;;;;;;;0.47;0.47;;;;;;;;;;4929891;28;20214;-78
2023/12/21 10:45:47;;;;;;;0.50;0.50;;;;;;;;;;4930883;28;20305;-79
2023/12/21 10:48:16;;;;;;;0.60;0.60;;;;;;;;;;4943052;28;20233;-79
2023/12/21 10:50:49;;;;;;;0.60;0.60;;;;;;;;;;4938071;28;20231;-85
2023/12/21 10:53:22;;;;;;;0.40;0.40;;;;;;;;;;4937558;28;20215;-82
2023/12/21 10:55:50;;;;;;;0.57;0.50;;;;;;;;;;4908179;28;20227;-86
2023/12/21 10:58:16;;;;;;;0.70;0.70;;;;;;;;;;4924966;29;20349;-83
2023/12/21 11:00:42;;;;;;;0.50;0.50;;;;;;;;;;4950822;28;20321;-85
2023/12/21 11:03:08;;;;;;;0.67;0.60;;;;;;;;;;4928166;28;20583;-85
2023/12/21 11:05:34;;;;;;;1.20;0.70;;;;;;;;;;4911977;28;20238;-85
2023/12/21 11:08:00;;;;;;;0.50;0.50;;;;;;;;;;4901413;29;20708;-83
2023/12/21 11:10:26;;;;;;;0.63;0.60;;;;;;;;;;4931815;28;20238;-86
2023/12/21 11:12:52;;;;;;;0.30;0.30;;;;;;;;;;4915944;28;20233;-85
2023/12/21 11:15:22;;;;;;;0.40;0.40;;;;;;;;;;4948653;29;20218;-87
2023/12/21 11:17:55;;;;;;;0.80;0.80;;;;;;;;;;4924869;28;20226;-85
2023/12/21 11:20:24;;;;;;;0.77;0.77;;;;;;;;;;4949539;28;20258;-84
2023/12/21 11:22:52;;;;;;;1.10;1.00;;;;;;;;;;4950132;28;20222;-84
2023/12/21 11:25:24;;;;;;;0.87;0.87;;;;;;;;;;4936653;29;20242;-86
2023/12/21 11:27:52;;;;;;;0.63;0.63;;;;;;;;;;4908132;28;20253;-85
2023/12/21 11:30:22;;;;;;;0.60;0.60;;;;;;;;;;4916135;28;20235;-86
2023/12/21 11:32:49;;;;;;;0.43;0.43;;;;;;;;;;4929599;28;20238;-87
2023/12/21 11:35:23;;;;;;;0.50;0.50;;;;;;;;;;4922412;28;20273;-84
2023/12/21 11:37:54;;;;;;;0.60;0.60;;;;;;;;;;4916725;28;20305;-88
2023/12/21 11:40:22;;;;;;;0.90;0.70;;;;;;;;;;4909658;28;20346;-89
2023/12/21 11:42:54;;;;;;;0.63;0.63;;;;;;;;;;4947581;28;20238;-85
2023/12/21 11:45:30;;;;;;;0.70;0.70;;;;;;;;;;4919327;28;20230;-87
2023/12/21 11:48:00;;;;;;;0.70;0.70;;;;;;;;;;4921687;29;20226;-86
2023/12/21 11:50:30;;;;;;;0.70;0.70;;;;;;;;;;4909305;29;20744;-88
2023/12/21 11:53:06;;;;;;;1.03;1.00;;;;;;;;;;4928920;28;20233;-87
2023/12/21 11:55:39;;;;;;;0.50;0.50;;;;;;;;;;4918840;28;20284;-88
2023/12/21 11:58:13;;;;;;;0.80;0.80;;;;;;;;;;4914566;28;20357;-83
2023/12/21 12:00:43;;;;;;;0.53;0.50;;;;;;;;;;4968296;28;20237;-86
2023/12/21 12:03:12;;;;;;;1.00;0.93;;;;;;;;;;4928262;28;20774;-84
2023/12/21 12:05:37;;;;;;;1.27;0.60;;;;;;;;;;4944065;28;20241;-87
2023/12/21 12:08:06;;;;;;;0.80;0.80;;;;;;;;;;4917959;28;20597;-84
2023/12/21 12:10:32;;;;;;;1.77;1.10;;;;;;;;;;4903573;28;20245;-87
2023/12/21 12:13:00;;;;;;;2.40;1.57;;;;;;;;;;4908190;29;20219;-86
2023/12/21 12:15:31;;;;;;;1.80;1.10;;;;;;;;;;4913657;29;20231;-84
2023/12/21 12:17:57;;;;;;;3.70;1.57;;;;;;;;;;4929345;28;20912;-87
2023/12/21 12:20:22;;;;;;;1.63;1.00;;;;;;;;;;4948086;28;20350;-86
2023/12/21 12:22:53;;;;;;;2.13;1.03;;;;;;;;;;4927668;28;20226;-85
2023/12/21 12:25:23;;;;;;;2.17;1.20;;;;;;;;;;4909806;28;20321;-85
2023/12/21 12:27:49;;;;;;;13.47;2.00;;;;;;;;;;4918833;28;20261;-83
2023/12/21 12:30:15;;;;;;;4.67;1.60;;;;;;;;;;4923623;28;20218;-81
2023/12/21 12:32:41;;;;;;;5.37;2.10;;;;;;;;;;4924570;28;20235;-83
2023/12/21 12:35:12;;;;;;;6.83;1.83;;;;;;;;;;4964970;28;20250;-85
2023/12/21 12:37:43;;;;;;;7.07;2.10;;;;;;;;;;4937370;28;20237;-86
2023/12/21 12:40:09;;;;;;;12.77;2.30;;;;;;;;;;4949642;28;20226;-87
2023/12/21 12:42:35;;;;;;;7.97;2.53;;;;;;;;;;4954381;28;20238;-84
2023/12/21 12:45:05;;;;;;;8.77;3.20;;;;;;;;;;4945576;28;20230;-86
2023/12/21 12:47:31;;;;;;;8.00;2.40;;;;;;;;;;4898994;28;20229;-86
2023/12/21 12:50:00;;;;;;;9.30;2.20;;;;;;;;;;4950694;28;20231;-87
2023/12/21 12:52:26;;;;;;;10.33;2.50;;;;;;;;;;4929874;28;20239;-85
2023/12/21 12:54:51;;;;;;;5.30;1.50;;;;;;;;;;4923341;28;20285;-90
2023/12/21 12:57:24;;;;;;;5.20;1.37;;;;;;;;;;4944971;29;20221;-85
2023/12/21 12:59:50;;;;;;;2.40;0.60;;;;;;;;;;4892188;28;20314;-85
2023/12/21 13:02:15;;;;;;;1.43;0.50;;;;;;;;;;4914463;29;20722;-86
2023/12/21 13:04:41;;;;;;;1.70;0.67;;;;;;;;;;4916908;28;20603;-83
2023/12/21 13:07:06;;;;;;;1.93;0.70;;;;;;;;;;4933208;28;20284;-87
2023/12/21 13:09:37;;;;;;;1.63;0.67;;;;;;;;;;4934973;29;20231;-87
2023/12/21 13:12:03;;;;;;;1.17;1.07;;;;;;;;;;4942158;29;20258;-87
2023/12/21 13:14:29;;;;;;;1.33;0.60;;;;;;;;;;4930589;29;20283;-86
2023/12/21 13:16:54;;;;;;;1.53;0.83;;;;;;;;;;4919126;29;20234;-86
2023/12/21 13:19:23;;;;;;;1.97;1.00;;;;;;;;;;4914429;28;20692;-87
2023/12/21 13:21:49;;;;;;;1.70;0.70;;;;;;;;;;4944615;28;20313;-86
2023/12/21 13:24:19;;;;;;;4.73;1.07;;;;;;;;;;4927808;29;20225;-85
2023/12/21 13:26:46;;;;;;;3.70;1.30;;;;;;;;;;4940753;29;20253;-87
2023/12/21 13:29:11;;;;;;;5.30;1.47;;;;;;;;;;4916802;28;20262;-86
2023/12/21 13:31:46;;;;;;;6.47;1.70;;;;;;;;;;4928139;29;21147;-85
2023/12/21 13:34:15;;;;;;;7.37;2.67;;;;;;;;;;4928238;28;20575;-86
2023/12/21 13:36:40;;;;;;;6.47;2.10;;;;;;;;;;4905964;28;20232;-87
2023/12/21 13:39:06;;;;;;;7.80;1.83;;;;;;;;;;4925662;28;20238;-79
2023/12/21 13:41:32;;;;;;;6.60;2.17;;;;;;;;;;4945607;28;20232;-78
2023/12/21 13:44:01;;;;;;;11.07;2.30;;;;;;;;;;4954192;28;20581;-79
2023/12/21 13:46:30;;;;;;;7.73;2.10;;;;;;;;;;4940299;28;20234;-80
2023/12/21 13:48:55;;;;;;;6.10;2.20;;;;;;;;;;4923426;28;20254;-79
2023/12/21 13:51:26;;;;;;;3.83;1.90;;;;;;;;;;4920493;28;20288;-79
2023/12/21 13:53:54;;;;;;;9.93;2.53;;;;;;;;;;4959339;28;20211;-80
2023/12/21 13:56:19;;;;;;;5.63;1.63;;;;;;;;;;4936015;28;20793;-79
2023/12/21 13:58:45;;;;;;;7.03;2.20;;;;;;;;;;4928128;29;20227;-79
2023/12/21 14:01:13;;;;;;;6.10;2.50;;;;;;;;;;4951851;28;20245;-79
2023/12/21 14:03:41;;;;;;;7.50;2.10;;;;;;;;;;4938758;28;20239;-79
2023/12/21 14:06:07;;;;;;;7.10;2.30;;;;;;;;;;4935695;28;20231;-79
2023/12/21 14:08:34;;;;;;;7.67;2.97;;;;;;;;;;4942373;28;20679;-80
2023/12/21 14:11:02;;;;;;;8.80;2.30;;;;;;;;;;4938250;29;20253;-81
2023/12/21 14:13:28;;;;;;;6.43;2.30;;;;;;;;;;4939857;28;20230;-79
2023/12/21 14:15:53;;;;;;;9.93;2.50;;;;;;;;;;4955609;28;20285;-78
2023/12/21 14:18:19;;;;;;;6.77;2.10;;;;;;;;;;4914671;28;20286;-78
2023/12/21 14:20:47;;;;;;;15.97;3.20;;;;;;;;;;4921275;28;20223;-80
2023/12/21 14:23:18;;;;;;;6.67;2.33;;;;;;;;;;4958322;28;20249;-79
2023/12/21 14:25:46;;;;;;;11.00;2.87;;;;;;;;;;4941107;28;20230;-78
2023/12/21 14:28:11;;;;;;;17.83;3.37;;;;;;;;;;4946573;28;20290;-78
2023/12/21 14:30:37;;;;;;;11.33;3.00;;;;;;;;;;4950851;28;20346;-79
2023/12/21 14:33:05;;;;;;;11.70;3.47;;;;;;;;;;4950998;28;20227;-79
2023/12/21 14:35:31;;;;;;;10.73;4.97;;;;;;;;;;4933598;28;20219;-78
2023/12/21 14:37:56;;;;;;;11.30;4.30;;;;;;;;;;4973658;28;20218;-77
2023/12/21 14:40:22;;;;;;;11.27;3.10;;;;;;;;;;4957128;29;20260;-78
2023/12/21 14:42:52;;;;;;;12.57;5.53;;;;;;;;;;4965440;28;20766;-78
2023/12/21 14:45:19;;;;;;;6.37;2.63;;;;;;;;;;4912625;28;20253;-79
2023/12/21 14:47:44;;;;;;;7.30;2.20;;;;;;;;;;4942847;28;20233;-79